sensor_id;sensor_type;location;lat;lon;timestamp;pressure;altitude;pressure_sealevel;temperature;humidity
49473;BME280;67434;50.956;6.918;2023-04-30T00:01:52;101716.13;;;8.07;91.28
49473;BME280;67434;50.956;6.918;2023-04-30T00:04:17;101717.50;;;8.16;90.64
49473;BME280;67434;50.956;6.918;2023-04-30T00:06:43;101711.06;;;8.24;89.71
49473;BME280;67434;50.956;6.918;2023-04-30T00:09:08;101720.63;;;8.20;89.38
49473;BME280;67434;50.956;6.918;2023-04-30T00:11:33;101713.97;;;8.23;88.20
49473;BME280;67434;50.956;6.918;2023-04-30T00:13:58;101713.31;;;8.34;87.09
49473;BME280;67434;50.956;6.918;2023-04-30T00:16:24;101715.16;;;8.33;87.30
49473;BME280;67434;50.956;6.918;2023-04-30T00:18:49;101711.81;;;8.38;86.58
49473;BME280;67434;50.956;6.918;2023-04-30T00:21:14;101714.94;;;8.35;86.19
49473;BME280;67434;50.956;6.918;2023-04-30T00:23:40;101718.97;;;8.51;84.92
49473;BME280;67434;50.956;6.918;2023-04-30T00:26:05;101721.44;;;8.52;84.53
49473;BME280;67434;50.956;6.918;2023-04-30T00:28:30;101712.50;;;8.58;84.04
49473;BME280;67434;50.956;6.918;2023-04-30T00:30:55;101725.47;;;8.43;84.58
49473;BME280;67434;50.956;6.918;2023-04-30T00:33:21;101725.31;;;8.31;84.99
49473;BME280;67434;50.956;6.918;2023-04-30T00:35:46;101731.19;;;8.22;85.39
49473;BME280;67434;50.956;6.918;2023-04-30T00:38:14;101736.78;;;8.13;85.90
49473;BME280;67434;50.956;6.918;2023-04-30T00:40:40;101738.72;;;8.06;86.28
49473;BME280;67434;50.956;6.918;2023-04-30T00:43:08;101736.69;;;7.95;86.79
49473;BME280;67434;50.956;6.918;2023-04-30T00:45:33;101731.75;;;7.92;86.64
49473;BME280;67434;50.956;6.918;2023-04-30T00:47:58;101737.78;;;7.88;87.05
49473;BME280;67434;50.956;6.918;2023-04-30T00:50:24;101732.84;;;7.78;87.41
49473;BME280;67434;50.956;6.918;2023-04-30T00:52:49;101733.25;;;7.75;87.60
49473;BME280;67434;50.956;6.918;2023-04-30T00:55:14;101733.72;;;7.65;87.79
49473;BME280;67434;50.956;6.918;2023-04-30T00:57:41;101745.34;;;7.59;87.62
49473;BME280;67434;50.956;6.918;2023-04-30T01:00:06;101737.50;;;7.51;88.60
49473;BME280;67434;50.956;6.918;2023-04-30T01:02:38;101740.22;;;7.44;88.99
49473;BME280;67434;50.956;6.918;2023-04-30T01:05:04;101745.13;;;7.61;88.37
49473;BME280;67434;50.956;6.918;2023-04-30T01:07:30;101736.34;;;7.85;86.77
49473;BME280;67434;50.956;6.918;2023-04-30T01:09:55;101734.41;;;7.99;85.63
49473;BME280;67434;50.956;6.918;2023-04-30T01:12:34;101735.22;;;7.99;84.91
49473;BME280;67434;50.956;6.918;2023-04-30T01:15:09;101741.66;;;7.98;84.70
49473;BME280;67434;50.956;6.918;2023-04-30T01:20:10;101745.38;;;7.97;85.28
49473;BME280;67434;50.956;6.918;2023-04-30T01:23:02;101754.25;;;8.04;84.92
49473;BME280;67434;50.956;6.918;2023-04-30T01:25:41;101751.84;;;7.90;85.08
49473;BME280;67434;50.956;6.918;2023-04-30T01:28:09;101748.16;;;7.84;85.50
49473;BME280;67434;50.956;6.918;2023-04-30T01:30:36;101750.03;;;7.77;85.92
49473;BME280;67434;50.956;6.918;2023-04-30T01:33:02;101751.31;;;7.68;85.86
49473;BME280;67434;50.956;6.918;2023-04-30T01:43:18;101741.44;;;7.48;87.10
49473;BME280;67434;50.956;6.918;2023-04-30T01:45:51;101743.72;;;7.38;87.20
49473;BME280;67434;50.956;6.918;2023-04-30T01:48:31;101744.81;;;7.24;87.92
49473;BME280;67434;50.956;6.918;2023-04-30T01:50:57;101741.13;;;7.12;88.21
49473;BME280;67434;50.956;6.918;2023-04-30T01:53:29;101742.13;;;7.04;88.72
49473;BME280;67434;50.956;6.918;2023-04-30T01:56:00;101745.66;;;6.98;88.81
49473;BME280;67434;50.956;6.918;2023-04-30T01:58:26;101742.56;;;6.95;88.92
49473;BME280;67434;50.956;6.918;2023-04-30T02:00:52;101745.47;;;6.86;89.35
49473;BME280;67434;50.956;6.918;2023-04-30T02:03:18;101750.84;;;6.80;89.54
49473;BME280;67434;50.956;6.918;2023-04-30T02:05:43;101741.97;;;6.79;89.26
49473;BME280;67434;50.956;6.918;2023-04-30T02:08:10;101751.06;;;6.78;89.48
49473;BME280;67434;50.956;6.918;2023-04-30T02:10:35;101749.63;;;6.82;89.11
49473;BME280;67434;50.956;6.918;2023-04-30T02:13:01;101750.03;;;6.79;89.19
49473;BME280;67434;50.956;6.918;2023-04-30T02:15:26;101745.91;;;6.77;89.12
49473;BME280;67434;50.956;6.918;2023-04-30T02:17:51;101745.91;;;6.70;89.10
49473;BME280;67434;50.956;6.918;2023-04-30T02:20:17;101747.13;;;6.87;87.66
49473;BME280;67434;50.956;6.918;2023-04-30T02:22:42;101745.88;;;6.97;87.28
49473;BME280;67434;50.956;6.918;2023-04-30T02:25:08;101742.78;;;6.86;87.37
49473;BME280;67434;50.956;6.918;2023-04-30T02:27:33;101742.81;;;6.73;87.81
49473;BME280;67434;50.956;6.918;2023-04-30T02:29:58;101740.09;;;6.67;88.54
49473;BME280;67434;50.956;6.918;2023-04-30T02:32:24;101730.59;;;6.57;88.61
49473;BME280;67434;50.956;6.918;2023-04-30T02:34:49;101740.50;;;6.50;89.51
49473;BME280;67434;50.956;6.918;2023-04-30T02:37:15;101736.16;;;6.49;89.63
49473;BME280;67434;50.956;6.918;2023-04-30T02:39:41;101735.53;;;6.41;89.73
49473;BME280;67434;50.956;6.918;2023-04-30T02:42:07;101739.03;;;6.35;90.27
49473;BME280;67434;50.956;6.918;2023-04-30T02:44:32;101738.00;;;6.36;89.98
49473;BME280;67434;50.956;6.918;2023-04-30T02:46:58;101749.53;;;6.30;90.00
49473;BME280;67434;50.956;6.918;2023-04-30T02:49:23;101750.56;;;6.28;89.95
49473;BME280;67434;50.956;6.918;2023-04-30T02:51:50;101751.03;;;6.39;89.47
49473;BME280;67434;50.956;6.918;2023-04-30T02:54:16;101748.16;;;6.47;89.04
49473;BME280;67434;50.956;6.918;2023-04-30T02:56:41;101755.16;;;6.61;88.17
49473;BME280;67434;50.956;6.918;2023-04-30T02:59:08;101748.97;;;6.61;87.66
49473;BME280;67434;50.956;6.918;2023-04-30T03:01:33;101754.56;;;6.52;88.17
49473;BME280;67434;50.956;6.918;2023-04-30T03:03:59;101760.53;;;6.68;87.53
49473;BME280;67434;50.956;6.918;2023-04-30T03:06:27;101762.84;;;6.77;87.51
49473;BME280;67434;50.956;6.918;2023-04-30T03:08:53;101760.97;;;6.78;87.50
49473;BME280;67434;50.956;6.918;2023-04-30T03:11:19;101760.34;;;6.63;87.92
49473;BME280;67434;50.956;6.918;2023-04-30T03:13:44;101761.16;;;6.50;88.55
49473;BME280;67434;50.956;6.918;2023-04-30T03:16:09;101754.34;;;6.47;88.74
49473;BME280;67434;50.956;6.918;2023-04-30T03:18:35;101761.38;;;6.42;89.07
49473;BME280;67434;50.956;6.918;2023-04-30T03:21:00;101764.00;;;6.28;89.63
49473;BME280;67434;50.956;6.918;2023-04-30T03:23:29;101761.91;;;6.17;90.34
49473;BME280;67434;50.956;6.918;2023-04-30T03:25:54;101759.00;;;6.06;90.74
49473;BME280;67434;50.956;6.918;2023-04-30T03:28:21;101751.75;;;6.00;90.78
49473;BME280;67434;50.956;6.918;2023-04-30T03:30:46;101749.69;;;5.95;91.11
49473;BME280;67434;50.956;6.918;2023-04-30T03:33:12;101750.63;;;5.87;91.34
49473;BME280;67434;50.956;6.918;2023-04-30T03:35:37;101748.59;;;5.89;91.30
49473;BME280;67434;50.956;6.918;2023-04-30T03:38:02;101748.41;;;5.91;91.12
49473;BME280;67434;50.956;6.918;2023-04-30T03:40:28;101753.13;;;5.89;91.24
49473;BME280;67434;50.956;6.918;2023-04-30T03:42:53;101756.59;;;5.83;91.31
49473;BME280;67434;50.956;6.918;2023-04-30T03:45:19;101754.94;;;5.82;91.59
49473;BME280;67434;50.956;6.918;2023-04-30T03:47:44;101750.38;;;5.76;91.50
49473;BME280;67434;50.956;6.918;2023-04-30T03:50:10;101753.88;;;5.70;92.03
49473;BME280;67434;50.956;6.918;2023-04-30T03:52:35;101748.09;;;5.66;92.12
49473;BME280;67434;50.956;6.918;2023-04-30T03:55:01;101754.69;;;5.63;92.36
49473;BME280;67434;50.956;6.918;2023-04-30T03:57:26;101758.78;;;5.59;92.66
49473;BME280;67434;50.956;6.918;2023-04-30T03:59:51;101757.31;;;5.57;92.83
49473;BME280;67434;50.956;6.918;2023-04-30T04:02:17;101755.91;;;5.61;92.66
49473;BME280;67434;50.956;6.918;2023-04-30T04:04:42;101748.91;;;5.67;92.65
49473;BME280;67434;50.956;6.918;2023-04-30T04:07:07;101755.56;;;5.84;91.84
49473;BME280;67434;50.956;6.918;2023-04-30T04:09:35;101752.38;;;5.95;91.68
49473;BME280;67434;50.956;6.918;2023-04-30T04:12:00;101755.88;;;5.95;91.06
49473;BME280;67434;50.956;6.918;2023-04-30T04:14:26;101750.00;;;5.85;91.48
49473;BME280;67434;50.956;6.918;2023-04-30T04:16:52;101753.91;;;5.76;92.08
49473;BME280;67434;50.956;6.918;2023-04-30T04:19:17;101758.22;;;5.71;92.01
49473;BME280;67434;50.956;6.918;2023-04-30T04:21:42;101763.97;;;5.68;92.32
49473;BME280;67434;50.956;6.918;2023-04-30T04:24:08;101759.66;;;5.67;92.51
49473;BME280;67434;50.956;6.918;2023-04-30T04:26:36;101756.75;;;5.68;92.48
49473;BME280;67434;50.956;6.918;2023-04-30T04:29:02;101759.25;;;5.70;92.41
49473;BME280;67434;50.956;6.918;2023-04-30T04:31:28;101763.41;;;5.79;92.32
49473;BME280;67434;50.956;6.918;2023-04-30T04:33:53;101762.19;;;5.81;91.87
49473;BME280;67434;50.956;6.918;2023-04-30T04:36:26;101772.72;;;5.83;91.84
49473;BME280;67434;50.956;6.918;2023-04-30T04:38:52;101770.66;;;5.85;91.74
49473;BME280;67434;50.956;6.918;2023-04-30T04:41:18;101766.38;;;5.90;91.49
49473;BME280;67434;50.956;6.918;2023-04-30T04:43:43;101762.91;;;5.97;91.29
49473;BME280;67434;50.956;6.918;2023-04-30T04:46:08;101769.72;;;5.99;91.12
49473;BME280;67434;50.956;6.918;2023-04-30T04:48:34;101767.47;;;6.03;90.74
49473;BME280;67434;50.956;6.918;2023-04-30T04:50:59;101773.03;;;6.08;90.52
49473;BME280;67434;50.956;6.918;2023-04-30T04:53:25;101771.41;;;6.13;90.31
49473;BME280;67434;50.956;6.918;2023-04-30T04:55:50;101782.59;;;6.23;90.23
49473;BME280;67434;50.956;6.918;2023-04-30T04:58:16;101779.72;;;6.32;90.05
49473;BME280;67434;50.956;6.918;2023-04-30T05:00:42;101775.00;;;6.34;90.34
49473;BME280;67434;50.956;6.918;2023-04-30T05:03:09;101777.47;;;6.42;90.30
49473;BME280;67434;50.956;6.918;2023-04-30T05:05:35;101775.22;;;6.52;89.84
49473;BME280;67434;50.956;6.918;2023-04-30T05:08:01;101776.25;;;6.57;89.75
49473;BME280;67434;50.956;6.918;2023-04-30T05:10:26;101775.63;;;6.69;89.15
49473;BME280;67434;50.956;6.918;2023-04-30T05:12:52;101776.91;;;6.79;88.86
49473;BME280;67434;50.956;6.918;2023-04-30T05:15:17;101788.28;;;6.88;88.66
49473;BME280;67434;50.956;6.918;2023-04-30T05:17:44;101782.47;;;6.98;88.17
49473;BME280;67434;50.956;6.918;2023-04-30T05:20:10;101792.63;;;7.09;87.71
49473;BME280;67434;50.956;6.918;2023-04-30T05:22:35;101788.47;;;7.26;86.94
49473;BME280;67434;50.956;6.918;2023-04-30T05:25:00;101788.63;;;7.38;86.40
49473;BME280;67434;50.956;6.918;2023-04-30T05:27:26;101798.75;;;7.42;86.19
49473;BME280;67434;50.956;6.918;2023-04-30T05:29:53;101799.81;;;7.48;85.59
49473;BME280;67434;50.956;6.918;2023-04-30T05:32:21;101797.94;;;7.55;85.30
49473;BME280;67434;50.956;6.918;2023-04-30T05:34:47;101806.16;;;7.67;84.58
49473;BME280;67434;50.956;6.918;2023-04-30T05:37:12;101808.19;;;7.84;83.19
49473;BME280;67434;50.956;6.918;2023-04-30T05:39:39;101805.28;;;7.86;83.14
49473;BME280;67434;50.956;6.918;2023-04-30T05:42:04;101806.31;;;7.92;83.39
49473;BME280;67434;50.956;6.918;2023-04-30T05:44:31;101805.22;;;7.99;82.58
49473;BME280;67434;50.956;6.918;2023-04-30T05:46:56;101810.59;;;8.06;82.59
49473;BME280;67434;50.956;6.918;2023-04-30T05:49:21;101809.28;;;8.15;82.16
49473;BME280;67434;50.956;6.918;2023-04-30T05:51:47;101810.28;;;8.27;81.77
49473;BME280;67434;50.956;6.918;2023-04-30T05:54:12;101807.16;;;8.37;81.16
49473;BME280;67434;50.956;6.918;2023-04-30T05:56:37;101810.59;;;8.51;81.15
49473;BME280;67434;50.956;6.918;2023-04-30T05:59:02;101814.47;;;8.61;79.75
49473;BME280;67434;50.956;6.918;2023-04-30T06:01:28;101806.94;;;8.70;79.63
49473;BME280;67434;50.956;6.918;2023-04-30T06:03:53;101812.91;;;8.78;79.18
49473;BME280;67434;50.956;6.918;2023-04-30T06:06:18;101810.53;;;8.89;78.99
49473;BME280;67434;50.956;6.918;2023-04-30T06:08:44;101811.72;;;8.99;78.75
49473;BME280;67434;50.956;6.918;2023-04-30T06:11:12;101805.38;;;9.12;78.03
49473;BME280;67434;50.956;6.918;2023-04-30T06:13:38;101806.50;;;9.23;77.64
49473;BME280;67434;50.956;6.918;2023-04-30T06:16:04;101801.16;;;9.41;76.54
49473;BME280;67434;50.956;6.918;2023-04-30T06:18:29;101800.44;;;9.52;76.44
49473;BME280;67434;50.956;6.918;2023-04-30T06:20:54;101799.91;;;9.62;76.24
49473;BME280;67434;50.956;6.918;2023-04-30T06:23:20;101796.53;;;9.85;75.07
49473;BME280;67434;50.956;6.918;2023-04-30T06:25:45;101801.47;;;10.06;73.91
49473;BME280;67434;50.956;6.918;2023-04-30T06:28:10;101801.75;;;10.16;72.69
49473;BME280;67434;50.956;6.918;2023-04-30T06:30:36;101802.53;;;10.23;72.29
49473;BME280;67434;50.956;6.918;2023-04-30T06:35:53;101804.22;;;10.36;71.75
49473;BME280;67434;50.956;6.918;2023-04-30T06:38:19;101806.41;;;10.27;72.07
49473;BME280;67434;50.956;6.918;2023-04-30T06:40:45;101808.72;;;10.42;71.21
49473;BME280;67434;50.956;6.918;2023-04-30T06:43:10;101805.47;;;10.52;70.83
49473;BME280;67434;50.956;6.918;2023-04-30T06:45:36;101811.72;;;10.64;70.56
49473;BME280;67434;50.956;6.918;2023-04-30T06:48:01;101800.53;;;10.60;70.90
49473;BME280;67434;50.956;6.918;2023-04-30T06:50:26;101793.25;;;10.61;70.64
49473;BME280;67434;50.956;6.918;2023-04-30T06:52:52;101808.44;;;10.74;70.14
49473;BME280;67434;50.956;6.918;2023-04-30T06:55:17;101801.06;;;10.81;69.98
49473;BME280;67434;50.956;6.918;2023-04-30T06:57:42;101804.97;;;10.85;70.39
49473;BME280;67434;50.956;6.918;2023-04-30T07:00:08;101806.25;;;10.94;69.50
49473;BME280;67434;50.956;6.918;2023-04-30T07:02:33;101800.84;;;10.94;69.76
49473;BME280;67434;50.956;6.918;2023-04-30T07:04:58;101792.38;;;11.02;69.34
49473;BME280;67434;50.956;6.918;2023-04-30T07:07:23;101795.72;;;11.16;69.38
49473;BME280;67434;50.956;6.918;2023-04-30T07:09:49;101791.84;;;11.23;68.86
49473;BME280;67434;50.956;6.918;2023-04-30T07:12:15;101790.28;;;11.39;68.36
49473;BME280;67434;50.956;6.918;2023-04-30T07:14:40;101788.38;;;11.51;67.74
49473;BME280;67434;50.956;6.918;2023-04-30T07:17:05;101784.72;;;11.69;67.56
49473;BME280;67434;50.956;6.918;2023-04-30T07:19:31;101787.06;;;11.77;66.58
49473;BME280;67434;50.956;6.918;2023-04-30T07:21:56;101786.72;;;11.74;66.72
49473;BME280;67434;50.956;6.918;2023-04-30T07:24:22;101792.63;;;11.59;66.51
49473;BME280;67434;50.956;6.918;2023-04-30T07:26:47;101784.84;;;11.63;67.01
49473;BME280;67434;50.956;6.918;2023-04-30T07:29:12;101790.38;;;11.68;67.02
49473;BME280;67434;50.956;6.918;2023-04-30T07:31:38;101793.31;;;11.78;66.69
49473;BME280;67434;50.956;6.918;2023-04-30T07:34:03;101783.19;;;11.85;66.63
49473;BME280;67434;50.956;6.918;2023-04-30T07:36:28;101791.28;;;11.97;65.89
49473;BME280;67434;50.956;6.918;2023-04-30T07:38:54;101789.75;;;12.01;65.89
49473;BME280;67434;50.956;6.918;2023-04-30T07:41:19;101792.91;;;12.09;65.39
49473;BME280;67434;50.956;6.918;2023-04-30T07:43:44;101785.19;;;12.18;65.17
49473;BME280;67434;50.956;6.918;2023-04-30T07:46:11;101778.28;;;12.39;64.79
49473;BME280;67434;50.956;6.918;2023-04-30T07:48:37;101782.91;;;12.55;64.06
49473;BME280;67434;50.956;6.918;2023-04-30T07:51:03;101791.25;;;12.65;64.19
49473;BME280;67434;50.956;6.918;2023-04-30T07:53:29;101791.03;;;12.55;63.14
49473;BME280;67434;50.956;6.918;2023-04-30T07:55:55;101781.41;;;12.47;63.41
49473;BME280;67434;50.956;6.918;2023-04-30T07:58:20;101787.25;;;12.56;63.67
49473;BME280;67434;50.956;6.918;2023-04-30T08:00:45;101787.22;;;12.68;63.21
49473;BME280;67434;50.956;6.918;2023-04-30T08:03:10;101784.41;;;12.79;62.30
49473;BME280;67434;50.956;6.918;2023-04-30T08:05:36;101780.88;;;12.96;61.58
49473;BME280;67434;50.956;6.918;2023-04-30T08:08:01;101778.41;;;13.11;61.35
49473;BME280;67434;50.956;6.918;2023-04-30T08:10:27;101785.00;;;13.15;61.88
49473;BME280;67434;50.956;6.918;2023-04-30T08:12:53;101781.44;;;13.31;61.32
49473;BME280;67434;50.956;6.918;2023-04-30T08:15:18;101779.28;;;13.50;60.77
49473;BME280;67434;50.956;6.918;2023-04-30T08:17:47;101790.97;;;13.51;59.61
49473;BME280;67434;50.956;6.918;2023-04-30T08:20:12;101792.31;;;13.48;60.00
49473;BME280;67434;50.956;6.918;2023-04-30T08:22:38;101790.47;;;13.54;59.41
49473;BME280;67434;50.956;6.918;2023-04-30T08:25:03;101787.06;;;13.41;59.78
49473;BME280;67434;50.956;6.918;2023-04-30T08:27:29;101783.91;;;13.50;59.72
49473;BME280;67434;50.956;6.918;2023-04-30T08:29:55;101786.00;;;13.64;58.85
49473;BME280;67434;50.956;6.918;2023-04-30T08:32:20;101777.81;;;13.81;58.02
49473;BME280;67434;50.956;6.918;2023-04-30T08:34:46;101783.56;;;13.85;57.04
49473;BME280;67434;50.956;6.918;2023-04-30T08:37:11;101770.03;;;13.90;57.38
49473;BME280;67434;50.956;6.918;2023-04-30T08:39:36;101775.00;;;13.98;57.41
49473;BME280;67434;50.956;6.918;2023-04-30T08:42:02;101781.38;;;14.08;56.96
49473;BME280;67434;50.956;6.918;2023-04-30T08:44:31;101775.19;;;14.13;55.74
49473;BME280;67434;50.956;6.918;2023-04-30T08:46:57;101775.94;;;14.08;55.64
49473;BME280;67434;50.956;6.918;2023-04-30T08:49:24;101773.59;;;14.17;55.64
49473;BME280;67434;50.956;6.918;2023-04-30T08:51:49;101772.31;;;14.25;55.43
49473;BME280;67434;50.956;6.918;2023-04-30T08:54:15;101776.47;;;14.32;54.51
49473;BME280;67434;50.956;6.918;2023-04-30T08:56:41;101764.47;;;14.28;53.61
49473;BME280;67434;50.956;6.918;2023-04-30T08:59:07;101762.88;;;14.32;52.08
49473;BME280;67434;50.956;6.918;2023-04-30T09:01:33;101766.78;;;14.42;52.39
49473;BME280;67434;50.956;6.918;2023-04-30T09:03:58;101762.03;;;14.54;52.50
49473;BME280;67434;50.956;6.918;2023-04-30T09:06:25;101769.22;;;14.65;51.05
49473;BME280;67434;50.956;6.918;2023-04-30T09:08:51;101761.88;;;14.65;52.03
49473;BME280;67434;50.956;6.918;2023-04-30T09:11:28;101765.53;;;14.81;51.68
49473;BME280;67434;50.956;6.918;2023-04-30T09:13:55;101764.09;;;15.06;51.28
49473;BME280;67434;50.956;6.918;2023-04-30T09:16:21;101763.53;;;15.04;50.80
49473;BME280;67434;50.956;6.918;2023-04-30T09:18:47;101759.47;;;15.06;50.60
49473;BME280;67434;50.956;6.918;2023-04-30T09:21:14;101756.53;;;15.18;51.05
49473;BME280;67434;50.956;6.918;2023-04-30T09:23:55;101757.19;;;15.30;50.94
49473;BME280;67434;50.956;6.918;2023-04-30T09:26:25;101756.44;;;15.45;50.58
49473;BME280;67434;50.956;6.918;2023-04-30T09:28:54;101745.81;;;15.48;50.70
49473;BME280;67434;50.956;6.918;2023-04-30T09:31:23;101741.28;;;15.59;50.42
49473;BME280;67434;50.956;6.918;2023-04-30T09:33:49;101734.50;;;15.61;50.54
49473;BME280;67434;50.956;6.918;2023-04-30T09:36:14;101731.19;;;15.59;50.40
49473;BME280;67434;50.956;6.918;2023-04-30T09:38:40;101739.31;;;15.54;50.02
49473;BME280;67434;50.956;6.918;2023-04-30T09:41:05;101725.13;;;15.52;50.35
49473;BME280;67434;50.956;6.918;2023-04-30T09:43:32;101724.69;;;15.66;49.59
49473;BME280;67434;50.956;6.918;2023-04-30T09:45:58;101713.84;;;15.86;48.74
49473;BME280;67434;50.956;6.918;2023-04-30T09:48:25;101713.03;;;15.85;47.50
49473;BME280;67434;50.956;6.918;2023-04-30T09:50:53;101715.50;;;15.92;47.93
49473;BME280;67434;50.956;6.918;2023-04-30T09:53:19;101716.66;;;16.11;47.62
49473;BME280;67434;50.956;6.918;2023-04-30T09:55:46;101713.38;;;16.30;47.63
49473;BME280;67434;50.956;6.918;2023-04-30T09:58:12;101712.06;;;16.52;47.62
49473;BME280;67434;50.956;6.918;2023-04-30T10:00:38;101709.03;;;16.64;45.32
49473;BME280;67434;50.956;6.918;2023-04-30T10:03:05;101703.06;;;16.67;45.71
49473;BME280;67434;50.956;6.918;2023-04-30T10:05:41;101700.88;;;16.39;46.39
49473;BME280;67434;50.956;6.918;2023-04-30T10:10:43;101695.09;;;16.35;47.19
49473;BME280;67434;50.956;6.918;2023-04-30T10:13:10;101695.97;;;16.46;46.52
49473;BME280;67434;50.956;6.918;2023-04-30T10:15:39;101699.22;;;16.63;46.05
49473;BME280;67434;50.956;6.918;2023-04-30T10:18:12;101693.47;;;16.65;44.96
49473;BME280;67434;50.956;6.918;2023-04-30T10:20:41;101685.59;;;16.53;46.07
49473;BME280;67434;50.956;6.918;2023-04-30T10:23:11;101692.66;;;16.59;45.24
49473;BME280;67434;50.956;6.918;2023-04-30T10:25:37;101686.69;;;16.47;45.30
49473;BME280;67434;50.956;6.918;2023-04-30T10:28:05;101678.47;;;16.52;44.70
49473;BME280;67434;50.956;6.918;2023-04-30T10:30:32;101677.66;;;16.62;45.01
49473;BME280;67434;50.956;6.918;2023-04-30T10:33:17;101681.50;;;16.50;44.34
49473;BME280;67434;50.956;6.918;2023-04-30T10:36:04;101672.47;;;16.65;44.59
49473;BME280;67434;50.956;6.918;2023-04-30T10:38:31;101665.91;;;16.86;44.05
49473;BME280;67434;50.956;6.918;2023-04-30T10:41:00;101672.47;;;16.85;44.44
49473;BME280;67434;50.956;6.918;2023-04-30T10:43:26;101664.56;;;16.89;43.61
49473;BME280;67434;50.956;6.918;2023-04-30T10:45:57;101660.47;;;16.86;43.74
49473;BME280;67434;50.956;6.918;2023-04-30T10:48:22;101652.75;;;17.04;43.10
49473;BME280;67434;50.956;6.918;2023-04-30T10:50:55;101659.88;;;17.10;43.64
49473;BME280;67434;50.956;6.918;2023-04-30T10:53:20;101656.47;;;17.38;43.77
49473;BME280;67434;50.956;6.918;2023-04-30T10:58:23;101649.25;;;17.63;42.75
49473;BME280;67434;50.956;6.918;2023-04-30T11:01:07;101643.13;;;17.86;42.54
49473;BME280;67434;50.956;6.918;2023-04-30T11:03:35;101640.56;;;18.00;41.84
49473;BME280;67434;50.956;6.918;2023-04-30T11:06:15;101638.38;;;18.02;41.49
49473;BME280;67434;50.956;6.918;2023-04-30T11:08:43;101635.47;;;17.88;41.58
49473;BME280;67434;50.956;6.918;2023-04-30T11:11:21;101622.84;;;17.92;41.45
49473;BME280;67434;50.956;6.918;2023-04-30T11:13:47;101622.78;;;18.02;41.41
49473;BME280;67434;50.956;6.918;2023-04-30T11:16:16;101618.03;;;18.13;41.68
49473;BME280;67434;50.956;6.918;2023-04-30T11:18:44;101619.22;;;18.36;41.95
49473;BME280;67434;50.956;6.918;2023-04-30T11:21:10;101613.50;;;18.66;41.40
49473;BME280;67434;50.956;6.918;2023-04-30T11:23:35;101611.50;;;18.72;40.80
49473;BME280;67434;50.956;6.918;2023-04-30T11:26:00;101627.97;;;18.96;39.49
49473;BME280;67434;50.956;6.918;2023-04-30T11:28:26;101617.34;;;19.13;38.60
49473;BME280;67434;50.956;6.918;2023-04-30T11:30:56;101612.25;;;19.25;37.97
49473;BME280;67434;50.956;6.918;2023-04-30T11:33:23;101609.63;;;19.39;37.93
49473;BME280;67434;50.956;6.918;2023-04-30T11:35:49;101609.09;;;19.37;37.82
49473;BME280;67434;50.956;6.918;2023-04-30T11:38:20;101602.72;;;19.42;37.89
49473;BME280;67434;50.956;6.918;2023-04-30T11:40:47;101609.03;;;19.42;38.78
49473;BME280;67434;50.956;6.918;2023-04-30T11:43:20;101599.91;;;19.04;38.52
49473;BME280;67434;50.956;6.918;2023-04-30T11:45:57;101599.16;;;18.74;39.65
49473;BME280;67434;50.956;6.918;2023-04-30T11:48:22;101596.00;;;18.57;40.45
49473;BME280;67434;50.956;6.918;2023-04-30T11:50:48;101598.44;;;18.88;40.43
49473;BME280;67434;50.956;6.918;2023-04-30T11:53:13;101592.50;;;19.04;38.87
49473;BME280;67434;50.956;6.918;2023-04-30T11:55:38;101597.72;;;19.06;38.89
49473;BME280;67434;50.956;6.918;2023-04-30T11:58:07;101586.53;;;19.21;38.60
49473;BME280;67434;50.956;6.918;2023-04-30T12:00:33;101578.44;;;19.54;38.19
49473;BME280;67434;50.956;6.918;2023-04-30T12:02:59;101577.34;;;19.74;37.45
49473;BME280;67434;50.956;6.918;2023-04-30T12:05:25;101579.72;;;19.80;37.61
49473;BME280;67434;50.956;6.918;2023-04-30T12:07:55;101564.03;;;19.99;36.99
49473;BME280;67434;50.956;6.918;2023-04-30T12:10:21;101567.13;;;20.44;37.29
49473;BME280;67434;50.956;6.918;2023-04-30T12:12:47;101556.69;;;20.87;35.84
49473;BME280;67434;50.956;6.918;2023-04-30T12:15:15;101549.88;;;20.85;34.37
49473;BME280;67434;50.956;6.918;2023-04-30T12:17:40;101555.88;;;20.87;34.25
49473;BME280;67434;50.956;6.918;2023-04-30T12:20:07;101548.19;;;20.43;34.73
49473;BME280;67434;50.956;6.918;2023-04-30T12:22:32;101547.91;;;20.72;34.87
49473;BME280;67434;50.956;6.918;2023-04-30T12:24:58;101553.41;;;20.72;35.40
49473;BME280;67434;50.956;6.918;2023-04-30T12:27:24;101545.56;;;20.92;35.31
49473;BME280;67434;50.956;6.918;2023-04-30T12:29:49;101542.53;;;20.94;35.09
49473;BME280;67434;50.956;6.918;2023-04-30T12:32:19;101540.91;;;20.52;35.20
49473;BME280;67434;50.956;6.918;2023-04-30T12:34:47;101553.84;;;20.00;36.10
49473;BME280;67434;50.956;6.918;2023-04-30T12:37:16;101540.94;;;19.68;36.65
49473;BME280;67434;50.956;6.918;2023-04-30T12:39:41;101542.72;;;19.59;36.74
49473;BME280;67434;50.956;6.918;2023-04-30T12:42:07;101539.66;;;19.42;36.97
49473;BME280;67434;50.956;6.918;2023-04-30T12:44:40;101535.91;;;19.56;37.00
49473;BME280;67434;50.956;6.918;2023-04-30T12:47:06;101537.97;;;19.83;37.29
49473;BME280;67434;50.956;6.918;2023-04-30T12:49:32;101539.91;;;19.64;36.66
49473;BME280;67434;50.956;6.918;2023-04-30T12:52:02;101524.94;;;19.75;36.94
49473;BME280;67434;50.956;6.918;2023-04-30T12:54:29;101535.22;;;19.64;37.05
49473;BME280;67434;50.956;6.918;2023-04-30T12:56:58;101532.03;;;19.39;36.37
49473;BME280;67434;50.956;6.918;2023-04-30T12:59:25;101537.50;;;19.20;36.87
49473;BME280;67434;50.956;6.918;2023-04-30T13:01:51;101522.00;;;19.29;36.96
49473;BME280;67434;50.956;6.918;2023-04-30T13:04:18;101520.19;;;19.43;36.03
49473;BME280;67434;50.956;6.918;2023-04-30T13:06:43;101519.66;;;19.41;36.73
49473;BME280;67434;50.956;6.918;2023-04-30T13:09:08;101511.75;;;19.58;36.26
49473;BME280;67434;50.956;6.918;2023-04-30T13:11:34;101506.16;;;19.45;36.58